Time,TemperatureF,DewpointF,PressureIn,WindDirection,WindDirectionDegrees,WindSpeedMPH,WindSpeedGustMPH,Humidity,HourlyPrecipIn,Conditions,Clouds,dailyrainin,SolarRadiationWatts/m^2,SoftwareType,DateUTC
2013-06-11 00:01:00,55.7,53.0,30.01,SW,223,0.0,1.0,91,0.00,,,0.00,0,weatherlink.com 1.10,2013-06-11 07:01:00,
2013-06-11 00:16:00,55.7,53.0,30.02,SW,223,1.0,3.0,90,0.00,,,0.00,0,weatherlink.com 1.10,2013-06-11 07:16:00,
2013-06-11 00:31:00,55.3,53.0,30.02,SW,223,1.0,4.0,91,0.00,,,0.00,0,weatherlink.com 1.10,2013-06-11 07:31:00,
2013-06-11 00:46:00,55.3,53.0,30.01,SW,223,0.0,1.0,91,0.00,,,0.00,0,weatherlink.com 1.10,2013-06-11 07:46:00,
2013-06-11 01:01:00,55.5,53.0,30.01,SW,223,1.0,1.0,91,0.00,,,0.00,0,weatherlink.com 1.10,2013-06-11 08:01:00,
2013-06-11 01:16:00,55.3,53.0,30.01,SW,223,0.0,1.0,91,0.00,,,0.00,0,weatherlink.com 1.10,2013-06-11 08:16:00,
2013-06-11 01:31:00,55.4,53.0,30.01,SW,223,1.0,1.0,91,0.00,,,0.00,0,weatherlink.com 1.10,2013-06-11 08:31:00,
2013-06-11 01:46:00,55.3,53.0,30.01,SW,223,0.0,0.0,91,0.00,,,0.00,0,weatherlink.com 1.10,2013-06-11 08:46:00,
2013-06-11 02:01:00,55.3,53.0,30.01,SW,223,1.0,2.0,91,0.00,,,0.00,0,weatherlink.com 1.10,2013-06-11 09:01:00,
2013-06-11 02:16:00,55.0,53.0,30.01,SW,223,0.0,3.0,91,0.00,,,0.00,0,weatherlink.com 1.10,2013-06-11 09:16:00,
2013-06-11 02:31:00,55.0,53.0,30.01,SW,223,0.0,1.0,92,0.00,,,0.00,0,weatherlink.com 1.10,2013-06-11 09:31:00,
2013-06-11 02:46:00,55.1,53.0,30.00,SW,223,0.0,0.0,92,0.00,,,0.00,0,weatherlink.com 1.10,2013-06-11 09:46:00,
2013-06-11 03:01:00,55.0,53.0,30.00,WNW,286,2.0,7.0,91,0.00,,,0.00,0,weatherlink.com 1.10,2013-06-11 10:01:00,
2013-06-11 03:16:00,54.6,52.0,30.00,WNW,287,0.0,3.0,92,0.00,,,0.00,0,weatherlink.com 1.10,2013-06-11 10:16:00,
2013-06-11 03:46:00,54.6,52.0,30.00,WNW,287,0.0,2.0,92,0.00,,,0.00,0,weatherlink.com 1.10,2013-06-11 10:46:00,
2013-06-11 04:01:00,54.5,52.0,30.00,WNW,287,0.0,1.0,92,0.00,,,0.00,0,weatherlink.com 1.10,2013-06-11 11:01:00,
2013-06-11 04:16:00,54.4,52.0,30.00,WNW,287,0.0,2.0,92,0.00,,,0.00,0,weatherlink.com 1.10,2013-06-11 11:16:00,
2013-06-11 04:46:00,54.6,52.0,29.99,WNW,287,1.0,2.0,92,0.00,,,0.00,0,weatherlink.com 1.10,2013-06-11 11:46:00,
2013-06-11 05:01:00,54.5,52.0,29.99,WNW,287,0.0,3.0,92,0.00,,,0.00,0,weatherlink.com 1.10,2013-06-11 12:01:00,
2013-06-11 05:31:00,54.7,53.0,29.99,WNW,287,1.0,3.0,92,0.00,,,0.00,0,weatherlink.com 1.10,2013-06-11 12:31:00,
2013-06-11 05:46:00,54.1,52.0,30.00,NW,319,1.0,5.0,92,0.00,,,0.00,0,weatherlink.com 1.10,2013-06-11 12:46:00,
2013-06-11 06:01:00,53.4,51.0,30.00,NW,321,2.0,7.0,92,0.00,,,0.00,11,weatherlink.com 1.10,2013-06-11 13:01:00,
2013-06-11 06:16:00,52.9,51.0,30.00,North,355,1.0,7.0,92,0.00,,,0.00,21,weatherlink.com 1.10,2013-06-11 13:16:00,
2013-06-11 06:31:00,52.9,51.0,30.00,North,355,0.0,1.0,92,0.00,,,0.00,30,weatherlink.com 1.10,2013-06-11 13:31:00,
2013-06-11 06:46:00,54.4,53.0,30.01,North,355,1.0,4.0,93,0.00,,,0.00,109,weatherlink.com 1.10,2013-06-11 13:46:00,
2013-06-11 07:01:00,56.0,54.0,30.01,North,355,0.0,1.0,93,0.00,,,0.00,163,weatherlink.com 1.10,2013-06-11 14:01:00,
2013-06-11 07:16:00,59.9,57.0,30.02,North,355,1.0,2.0,89,0.00,,,0.00,209,weatherlink.com 1.10,2013-06-11 14:16:00,
2013-06-11 07:31:00,61.1,55.0,30.02,North,355,0.0,5.0,80,0.00,,,0.00,262,weatherlink.com 1.10,2013-06-11 14:31:00,
2013-06-11 07:47:00,63.4,56.0,30.02,North,355,1.0,4.0,76,0.00,,,0.00,318,weatherlink.com 1.10,2013-06-11 14:47:00,
2013-06-11 08:02:00,66.1,57.0,30.02,North,355,3.0,4.0,72,0.00,,,0.00,371,weatherlink.com 1.10,2013-06-11 15:02:00,
2013-06-11 08:17:00,67.0,56.0,30.02,North,355,2.0,4.0,69,0.00,,,0.00,418,weatherlink.com 1.10,2013-06-11 15:17:00,
2013-06-11 08:32:00,66.1,55.0,30.02,WNW,302,2.0,7.0,67,0.00,,,0.00,471,weatherlink.com 1.10,2013-06-11 15:32:00,
2013-06-11 08:47:00,66.4,55.0,30.02,WNW,302,3.0,6.0,67,0.00,,,0.00,524,weatherlink.com 1.10,2013-06-11 15:47:00,
2013-06-11 09:02:00,67.2,55.0,30.02,WNW,293,5.0,7.0,64,0.00,,,0.00,568,weatherlink.com 1.10,2013-06-11 16:02:00,
2013-06-11 09:17:00,65.4,54.0,30.03,WNW,284,2.0,8.0,67,0.00,,,0.00,615,weatherlink.com 1.10,2013-06-11 16:17:00,
2013-06-11 09:32:00,61.9,52.0,30.03,NNW,333,4.0,9.0,71,0.00,,,0.00,659,weatherlink.com 1.10,2013-06-11 16:32:00,
2013-06-11 09:47:00,61.7,54.0,30.03,WNW,284,9.0,9.0,75,0.00,,,0.00,700,weatherlink.com 1.10,2013-06-11 16:47:00,
2013-06-11 10:02:00,61.6,53.0,30.04,WNW,294,5.0,12.0,74,0.00,,,0.00,737,weatherlink.com 1.10,2013-06-11 17:02:00,
2013-06-11 10:17:00,60.5,53.0,30.04,NW,324,4.0,11.0,76,0.00,,,0.00,772,weatherlink.com 1.10,2013-06-11 17:17:00,
2013-06-11 10:32:00,60.4,53.0,30.05,NW,320,4.0,13.0,77,0.00,,,0.00,807,weatherlink.com 1.10,2013-06-11 17:32:00,
2013-06-11 10:47:00,60.7,54.0,30.05,NW,304,6.0,10.0,78,0.00,,,0.00,838,weatherlink.com 1.10,2013-06-11 17:47:00,
2013-06-11 11:02:00,61.1,54.0,30.05,NW,312,7.0,11.0,76,0.00,,,0.00,868,weatherlink.com 1.10,2013-06-11 18:02:00,
2013-06-11 11:18:00,60.8,53.0,30.06,NW,306,8.0,11.0,76,0.00,,,0.00,895,weatherlink.com 1.10,2013-06-11 18:18:00,
2013-06-11 11:33:00,60.2,53.0,30.05,NNW,337,9.0,13.0,77,0.00,,,0.00,919,weatherlink.com 1.10,2013-06-11 18:33:00,
2013-06-11 11:48:00,60.5,53.0,30.05,NW,317,7.0,12.0,77,0.00,,,0.00,937,weatherlink.com 1.10,2013-06-11 18:48:00,
2013-06-11 12:03:00,61.4,53.0,30.05,NW,314,7.0,13.0,75,0.00,,,0.00,954,weatherlink.com 1.10,2013-06-11 19:03:00,
2013-06-11 12:18:00,62.0,53.0,30.05,NW,309,10.0,14.0,73,0.00,,,0.00,967,weatherlink.com 1.10,2013-06-11 19:18:00,
2013-06-11 12:33:00,61.1,53.0,30.05,NW,313,12.0,18.0,74,0.00,,,0.00,976,weatherlink.com 1.10,2013-06-11 19:33:00,
2013-06-11 12:48:00,61.0,52.0,30.05,WNW,300,10.0,17.0,73,0.00,,,0.00,983,weatherlink.com 1.10,2013-06-11 19:48:00,
2013-06-11 13:03:00,60.7,52.0,30.04,NW,309,11.0,18.0,74,0.00,,,0.00,984,weatherlink.com 1.10,2013-06-11 20:03:00,
2013-06-11 13:18:00,60.7,52.0,30.04,NNW,338,16.0,18.0,74,0.00,,,0.00,984,weatherlink.com 1.10,2013-06-11 20:18:00,
2013-06-11 13:33:00,61.3,53.0,30.03,WNW,299,12.0,17.0,74,0.00,,,0.00,977,weatherlink.com 1.10,2013-06-11 20:33:00,
2013-06-11 13:48:00,61.3,53.0,30.03,NNW,331,7.0,19.0,73,0.00,,,0.00,972,weatherlink.com 1.10,2013-06-11 20:48:00,
2013-06-11 14:03:00,61.7,53.0,30.02,NNE,21,5.0,17.0,73,0.00,,,0.00,960,weatherlink.com 1.10,2013-06-11 21:03:00,
2013-06-11 14:18:00,61.7,53.0,30.02,North,355,10.0,20.0,72,0.00,,,0.00,944,weatherlink.com 1.10,2013-06-11 21:18:00,
2013-06-11 14:33:00,61.2,52.0,30.02,NNW,329,6.0,22.0,73,0.00,,,0.00,925,weatherlink.com 1.10,2013-06-11 21:33:00,
2013-06-11 14:48:00,61.9,53.0,30.02,WNW,300,12.0,18.0,72,0.00,,,0.00,904,weatherlink.com 1.10,2013-06-11 21:48:00,
2013-06-11 15:03:00,62.3,52.0,30.01,NNW,333,7.0,17.0,70,0.00,,,0.00,879,weatherlink.com 1.10,2013-06-11 22:03:00,
2013-06-11 15:18:00,62.6,53.0,30.01,WNW,290,14.0,17.0,70,0.00,,,0.00,853,weatherlink.com 1.10,2013-06-11 22:18:00,
2013-06-11 15:33:00,62.2,52.0,30.00,North,9,6.0,18.0,70,0.00,,,0.00,823,weatherlink.com 1.10,2013-06-11 22:33:00,
2013-06-11 15:48:00,62.1,53.0,30.00,NW,320,7.0,17.0,71,0.00,,,0.00,789,weatherlink.com 1.10,2013-06-11 22:48:00,
2013-06-11 16:03:00,62.8,52.0,29.99,WNW,302,17.0,18.0,69,0.00,,,0.00,759,weatherlink.com 1.10,2013-06-11 23:03:00,
2013-06-11 16:18:00,62.7,52.0,29.99,NNE,26,5.0,20.0,69,0.00,,,0.00,726,weatherlink.com 1.10,2013-06-11 23:18:00,
2013-06-11 16:33:00,62.2,52.0,29.99,NW,311,7.0,20.0,70,0.00,,,0.00,687,weatherlink.com 1.10,2013-06-11 23:33:00,
2013-06-11 16:48:00,62.1,52.0,29.98,WNW,287,11.0,23.0,70,0.00,,,0.00,649,weatherlink.com 1.10,2013-06-11 23:48:00,
2013-06-11 17:03:00,62.1,52.0,29.98,NW,319,12.0,23.0,69,0.00,,,0.00,606,weatherlink.com 1.10,2013-06-12 00:03:00,
2013-06-11 17:18:00,62.7,52.0,29.99,NW,312,12.0,18.0,68,0.00,,,0.00,561,weatherlink.com 1.10,2013-06-12 00:18:00,
2013-06-11 17:33:00,62.7,52.0,29.98,NNW,330,8.0,22.0,67,0.00,,,0.00,513,weatherlink.com 1.10,2013-06-12 00:33:00,
2013-06-11 17:48:00,62.8,52.0,29.98,NNW,347,4.0,15.0,67,0.00,,,0.00,466,weatherlink.com 1.10,2013-06-12 00:48:00,
2013-06-11 18:03:00,61.8,51.0,29.98,NNE,17,14.0,21.0,68,0.00,,,0.00,417,weatherlink.com 1.10,2013-06-12 01:03:00,
2013-06-11 18:18:00,60.9,51.0,29.98,NW,306,11.0,20.0,70,0.00,,,0.00,366,weatherlink.com 1.10,2013-06-12 01:18:00,
2013-06-11 18:33:00,60.9,51.0,29.97,NNW,348,12.0,17.0,71,0.00,,,0.00,315,weatherlink.com 1.10,2013-06-12 01:33:00,
2013-06-11 18:48:00,60.5,51.0,29.97,NW,320,10.0,16.0,71,0.00,,,0.00,265,weatherlink.com 1.10,2013-06-12 01:48:00,
2013-06-11 19:03:00,60.6,51.0,29.97,NNW,334,4.0,17.0,71,0.00,,,0.00,216,weatherlink.com 1.10,2013-06-12 02:03:00,
2013-06-11 19:18:00,60.7,51.0,29.97,NNW,331,6.0,16.0,71,0.00,,,0.00,169,weatherlink.com 1.10,2013-06-12 02:18:00,
2013-06-11 19:33:00,59.4,51.0,29.97,NNW,345,5.0,16.0,73,0.00,,,0.00,127,weatherlink.com 1.10,2013-06-12 02:33:00,
2013-06-11 19:48:00,58.5,51.0,29.97,North,350,5.0,15.0,75,0.00,,,0.00,58,weatherlink.com 1.10,2013-06-12 02:48:00,
2013-06-11 20:18:00,56.9,50.0,29.97,North,355,3.0,13.0,77,0.00,,,0.00,18,weatherlink.com 1.10,2013-06-12 03:18:00,
2013-06-11 20:33:00,56.3,50.0,29.97,NNW,331,3.0,12.0,78,0.00,,,0.00,9,weatherlink.com 1.10,2013-06-12 03:33:00,
2013-06-11 20:48:00,55.7,49.0,29.97,NNW,346,3.0,9.0,79,0.00,,,0.00,0,weatherlink.com 1.10,2013-06-12 03:48:00,
2013-06-11 21:03:00,55.0,49.0,29.98,NNW,336,4.0,7.0,79,0.00,,,0.00,0,weatherlink.com 1.10,2013-06-12 04:03:00,
2013-06-11 21:18:00,54.4,49.0,29.98,NNW,336,3.0,5.0,81,0.00,,,0.00,0,weatherlink.com 1.10,2013-06-12 04:18:00,
2013-06-11 21:33:00,54.0,49.0,29.99,NNW,336,3.0,6.0,82,0.00,,,0.00,0,weatherlink.com 1.10,2013-06-12 04:33:00,
2013-06-11 21:48:00,53.6,49.0,30.00,NNW,336,1.0,4.0,83,0.00,,,0.00,0,weatherlink.com 1.10,2013-06-12 04:48:00,
2013-06-11 22:03:00,52.7,48.0,30.00,NNW,336,3.0,5.0,84,0.00,,,0.00,0,weatherlink.com 1.10,2013-06-12 05:03:00,
2013-06-11 22:18:00,52.2,48.0,30.00,NNW,336,5.0,5.0,85,0.00,,,0.00,0,weatherlink.com 1.10,2013-06-12 05:18:00,
2013-06-11 22:33:00,52.0,48.0,30.00,NNW,336,3.0,7.0,85,0.00,,,0.00,0,weatherlink.com 1.10,2013-06-12 05:33:00,
2013-06-11 22:48:00,52.0,47.0,30.00,NNW,336,1.0,5.0,84,0.00,,,0.00,0,weatherlink.com 1.10,2013-06-12 05:48:00,
2013-06-11 23:04:00,51.9,47.0,30.00,NNW,336,2.0,5.0,84,0.00,,,0.00,0,weatherlink.com 1.10,2013-06-12 06:04:00,
2013-06-11 23:19:00,52.0,47.0,30.00,NNW,336,3.0,7.0,83,0.00,,,0.00,0,weatherlink.com 1.10,2013-06-12 06:19:00,
2013-06-11 23:34:00,52.3,47.0,30.00,NNW,336,2.0,6.0,82,0.00,,,0.00,0,weatherlink.com 1.10,2013-06-12 06:34:00,
2013-06-11 23:49:00,52.2,47.0,30.00,NNW,336,4.0,5.0,81,0.00,,,0.00,0,weatherlink.com 1.10,2013-06-12 06:49:00,